Time;durP1;ratioP1;P1;durP2;ratioP2;P2;SDS_P1;SDS_P2;PMS_P1;PMS_P2;Temp;Humidity;BMP_temperature;BMP_pressure;BME280_temperature;BME280_humidity;BME280_pressure;Samples;Min_cycle;Max_cycle;Signal;HPM_P1;HPM_P2
2022/12/12 00:00:08;;;;;;;2.25;2.05;;;;;;;18.72;29.09;100501.28;5045615;28;20063;-89
2022/12/12 00:02:37;;;;;;;2.00;1.77;;;;;;;18.77;28.98;100503.28;5047671;28;20036;-90
2022/12/12 00:05:03;;;;;;;2.58;2.05;;;;;;;18.82;28.61;100513.41;5054619;28;20028;-90
2022/12/12 00:07:28;;;;;;;1.80;1.65;;;;;;;18.77;28.77;100506.00;5038320;28;20509;-91
2022/12/12 00:09:54;;;;;;;2.17;1.85;;;;;;;18.67;28.82;100500.34;5054449;28;20051;-91
2022/12/12 00:12:20;;;;;;;2.20;1.70;;;;;;;18.75;28.90;100508.13;5054006;28;20036;-90
2022/12/12 00:14:45;;;;;;;3.28;2.10;;;;;;;18.76;28.70;100517.88;5058150;28;20032;-90
2022/12/12 00:17:11;;;;;;;2.25;1.75;;;;;;;18.70;28.73;100516.94;5070335;28;20024;-90
2022/12/12 00:19:39;;;;;;;2.42;2.20;;;;;;;18.71;28.74;100502.38;5045458;28;20031;-89
2022/12/12 00:22:07;;;;;;;2.00;1.67;;;;;;;18.72;28.32;100504.00;5042811;28;20028;-90
2022/12/12 00:24:33;;;;;;;2.50;1.88;;;;;;;18.77;28.76;100512.22;5055803;28;20036;-90
2022/12/12 00:26:58;;;;;;;2.03;1.80;;;;;;;18.75;28.92;100513.53;5041934;28;20056;-90
2022/12/12 00:29:24;;;;;;;2.78;1.98;;;;;;;18.79;28.63;100511.16;5041772;28;20480;-90
2022/12/12 00:31:49;;;;;;;1.77;1.55;;;;;;;18.75;28.55;100516.25;5053089;28;20056;-90
2022/12/12 00:34:15;;;;;;;2.42;2.05;;;;;;;18.62;28.63;100497.53;5036971;28;20077;-90
2022/12/12 00:36:46;;;;;;;2.10;1.90;;;;;;;18.73;28.73;100515.63;5053047;28;20115;-90
2022/12/12 00:39:12;;;;;;;2.08;1.88;;;;;;;18.75;28.61;100508.13;5040821;28;20036;-90
2022/12/12 00:41:38;;;;;;;1.95;1.80;;;;;;;18.74;28.61;100499.16;5032750;28;20221;-90
2022/12/12 00:44:04;;;;;;;2.65;2.10;;;;;;;18.74;28.54;100503.75;5052588;28;20024;-90
2022/12/12 00:46:29;;;;;;;2.20;2.00;;;;;;;18.81;28.71;100509.03;5035770;28;20123;-90
2022/12/12 00:48:56;;;;;;;2.40;1.92;;;;;;;18.76;28.57;100504.31;5048990;28;20024;-90
2022/12/12 00:51:22;;;;;;;2.65;1.80;;;;;;;18.83;28.60;100515.88;5049205;28;20036;-89
2022/12/12 00:53:48;;;;;;;2.65;2.13;;;;;;;18.80;28.69;100504.66;5030964;28;20032;-90
2022/12/12 00:56:17;;;;;;;1.75;1.60;;;;;;;18.79;28.62;100516.59;5043841;28;20031;-89
2022/12/12 00:58:46;;;;;;;2.00;1.80;;;;;;;18.76;28.60;100504.31;5033537;28;20028;-90
2022/12/12 01:01:14;;;;;;;2.30;1.80;;;;;;;18.78;28.67;100513.03;5053519;28;20085;-90
2022/12/12 01:03:40;;;;;;;2.13;1.92;;;;;;;18.67;28.28;100500.34;5040138;28;20023;-90
2022/12/12 01:06:05;;;;;;;2.00;1.73;;;;;;;18.75;28.67;100516.25;5026015;28;20511;-90
2022/12/12 01:08:31;;;;;;;2.10;1.90;;;;;;;18.79;28.49;100520.09;5043382;28;20051;-90
2022/12/12 01:10:57;;;;;;;2.63;1.95;;;;;;;18.66;28.04;100498.69;5043310;28;20109;-90
2022/12/12 01:13:22;;;;;;;2.28;2.05;;;;;;;18.72;28.29;100503.19;5037089;28;20052;-90
2022/12/12 01:15:48;;;;;;;2.85;2.10;;;;;;;18.79;28.39;100509.28;5026119;28;20036;-90
2022/12/12 01:18:14;;;;;;;2.10;1.80;;;;;;;18.66;28.55;100504.13;5051464;28;20087;-90
2022/12/12 01:20:40;;;;;;;2.95;1.73;;;;;;;18.69;28.44;100506.34;5048269;28;20078;-90
2022/12/12 01:23:05;;;;;;;3.17;2.30;;;;;;;18.63;28.34;100504.63;5042190;28;20023;-90
2022/12/12 01:25:31;;;;;;;2.50;2.00;;;;;;;18.74;28.19;100517.28;5057123;28;20085;-90
2022/12/12 01:27:58;;;;;;;2.25;1.80;;;;;;;18.75;28.32;100508.94;5055895;28;20040;-90
2022/12/12 01:30:23;;;;;;;1.95;1.77;;;;;;;18.74;28.46;100511.88;5036970;28;20520;-89
2022/12/12 01:32:49;;;;;;;2.58;2.15;;;;;;;18.75;28.12;100518.94;5059602;28;20093;-90
2022/12/12 01:35:15;;;;;;;2.25;2.05;;;;;;;18.73;27.92;100510.22;5036160;28;20491;-90
2022/12/12 01:37:43;;;;;;;2.22;2.03;;;;;;;18.72;27.98;100511.28;5028973;28;20024;-89
2022/12/12 01:40:19;;;;;;;2.63;1.92;;;;;;;18.67;28.14;100487.63;5054243;28;20116;-90
2022/12/12 01:42:45;;;;;;;2.35;1.85;;;;;;;18.62;28.17;100479.41;5046523;28;20035;-90
2022/12/12 01:45:48;;;;;;;1.98;1.77;;;;;;;18.76;28.13;100496.22;5037296;28;20025;-90
2022/12/12 01:48:13;;;;;;;2.10;1.90;;;;;;;18.79;27.97;100489.50;5068270;28;20485;-90
2022/12/12 01:50:40;;;;;;;2.67;1.95;;;;;;;18.74;28.07;100482.09;5046303;28;20112;-90
2022/12/12 01:53:06;;;;;;;2.13;1.92;;;;;;;18.70;28.09;100479.03;5048684;28;20134;-90
2022/12/12 01:55:32;;;;;;;2.00;1.80;;;;;;;18.68;28.13;100483.03;5057227;28;20103;-90
2022/12/12 01:57:57;;;;;;;2.28;2.00;;;;;;;18.74;27.96;100480.19;5064889;28;20067;-90
2022/12/12 02:00:23;;;;;;;3.60;2.00;;;;;;;18.70;28.00;100475.53;5039480;28;20032;-90
2022/12/12 02:02:55;;;;;;;2.88;2.38;;;;;;;18.54;28.03;100450.84;5053914;28;20392;-90
2022/12/12 02:05:31;;;;;;;3.22;2.08;;;;;;;18.72;27.99;100460.66;5049527;28;20027;-89
2022/12/12 02:08:00;;;;;;;1.90;1.67;;;;;;;18.68;27.71;100461.38;5070363;28;20029;-89
2022/12/12 02:10:26;;;;;;;2.20;1.98;;;;;;;18.59;27.80;100436.56;5031762;28;20077;-90
2022/12/12 02:12:54;;;;;;;1.98;1.77;;;;;;;18.72;27.84;100455.25;5044381;28;20036;-90
2022/12/12 02:15:20;;;;;;;2.40;1.98;;;;;;;18.68;27.98;100442.44;5050578;28;20031;-90
2022/12/12 02:17:48;;;;;;;2.35;2.00;;;;;;;18.66;27.84;100450.81;5050098;28;20056;-90
2022/12/12 02:20:52;;;;;;;2.25;1.92;;;;;;;18.63;27.73;100434.25;5076680;28;20030;-90
2022/12/12 02:23:39;;;;;;;1.92;1.80;;;;;;;18.66;27.93;100439.16;5010054;28;20321;-90
2022/12/12 02:26:18;;;;;;;2.63;1.98;;;;;;;18.55;27.89;100417.28;5078917;28;20119;-90
2022/12/12 02:29:24;;;;;;;2.35;2.15;;;;;;;18.67;27.80;100429.97;5054262;28;20024;-90
2022/12/12 02:31:54;;;;;;;2.53;2.08;;;;;;;18.64;27.80;100425.03;5080647;28;20043;-90
2022/12/12 02:34:46;;;;;;;2.47;1.83;;;;;;;18.65;27.65;100426.69;5042834;28;20035;-89
2022/12/12 02:37:29;;;;;;;2.58;2.08;;;;;;;18.64;27.56;100419.63;5072672;28;20487;-90
2022/12/12 02:40:30;;;;;;;3.05;2.05;;;;;;;18.67;27.58;100408.31;5060551;28;20123;-90
2022/12/12 02:43:05;;;;;;;2.75;2.00;;;;;;;18.68;27.26;100416.22;5067680;28;20064;-89
2022/12/12 02:45:39;;;;;;;2.72;2.00;;;;;;;18.63;27.64;100412.59;5036539;28;20037;-90
2022/12/12 02:48:20;;;;;;;1.70;1.60;;;;;;;18.54;27.56;100404.84;5046758;28;20093;-90
2022/12/12 02:50:47;;;;;;;2.47;1.83;;;;;;;18.53;27.71;100405.06;5055727;28;20128;-90
2022/12/12 02:53:17;;;;;;;2.53;2.03;;;;;;;18.61;27.68;100411.97;5038595;28;20039;-90
2022/12/12 02:55:42;;;;;;;2.33;1.90;;;;;;;18.62;27.51;100410.94;5056268;28;20490;-90
2022/12/12 02:58:08;;;;;;;3.13;2.13;;;;;;;18.60;27.38;100404.94;5073226;28;20028;-90
2022/12/12 03:01:09;;;;;;;2.42;1.90;;;;;;;18.50;27.57;100395.53;5047123;28;20016;-90
2022/12/12 03:10:11;;;;;;;2.75;2.20;;;;;;;18.52;27.43;100390.72;5063909;28;20046;-90
2022/12/12 03:12:47;;;;;;;2.40;2.17;;;;;;;18.52;27.24;100390.72;5051367;28;20020;-90
2022/12/12 03:15:22;;;;;;;2.53;1.88;;;;;;;18.51;27.65;100391.78;5071175;28;20519;-90
2022/12/12 03:18:15;;;;;;;2.45;1.88;;;;;;;18.49;27.29;100393.06;5052791;28;20091;-89
2022/12/12 03:20:49;;;;;;;2.30;2.03;;;;;;;18.51;27.34;100389.06;5039008;28;20036;-89
2022/12/12 03:23:17;;;;;;;2.40;2.17;;;;;;;18.53;27.00;100386.94;5039631;28;20031;-89
2022/12/12 03:25:50;;;;;;;2.08;1.88;;;;;;;18.49;27.23;100384.94;5035806;28;20025;-89
2022/12/12 03:28:51;;;;;;;2.70;2.22;;;;;;;18.48;27.23;100389.53;5054859;28;20040;-89
2022/12/12 03:31:19;;;;;;;2.88;2.10;;;;;;;18.46;27.29;100380.84;5038037;28;20427;-89
2022/12/12 03:33:46;;;;;;;2.20;1.80;;;;;;;18.44;27.12;100366.75;5049460;28;20038;-89
2022/12/12 03:36:16;;;;;;;2.55;2.00;;;;;;;18.45;27.22;100379.19;5056683;28;20025;-89
2022/12/12 03:38:55;;;;;;;2.65;1.80;;;;;;;18.18;27.26;100352.69;5067777;28;20661;-89
2022/12/12 03:41:21;;;;;;;1.73;1.63;;;;;;;18.45;27.31;100373.78;5060561;28;20472;-90
2022/12/12 03:44:09;;;;;;;3.03;2.13;;;;;;;18.48;27.12;100365.19;5034457;28;20033;-89
2022/12/12 03:46:45;;;;;;;2.10;1.88;;;;;;;18.45;27.10;100368.38;5073615;28;20052;-89
2022/12/12 03:49:16;;;;;;;2.45;2.08;;;;;;;18.42;27.21;100362.63;5050998;28;20028;-89
2022/12/12 03:51:44;;;;;;;3.35;2.10;;;;;;;18.35;27.19;100363.59;5039752;28;20039;-89
2022/12/12 03:54:58;;;;;;;2.58;1.92;;;;;;;18.43;26.96;100373.22;5055767;28;20097;-89
2022/12/12 03:57:27;;;;;;;2.10;1.90;;;;;;;18.33;27.03;100340.53;5071812;28;20089;-89
2022/12/12 03:59:56;;;;;;;2.40;2.10;;;;;;;18.48;26.91;100356.25;5046363;28;20500;-89
2022/12/12 04:02:31;;;;;;;2.60;2.20;;;;;;;18.38;27.01;100346.06;5038818;28;20126;-89
2022/12/12 04:05:19;;;;;;;2.38;1.75;;;;;;;18.43;27.08;100358.88;5053032;28;20038;-90
2022/12/12 04:07:59;;;;;;;3.05;2.08;;;;;;;18.42;27.02;100355.34;5055637;28;20032;-90
2022/12/12 04:13:27;;;;;;;2.30;1.85;;;;;;;18.32;26.98;100336.22;5072114;28;20031;-89
2022/12/12 04:16:23;;;;;;;2.73;2.13;;;;;;;18.34;27.14;100343.00;5052931;28;20085;-89
2022/12/12 04:19:06;;;;;;;2.20;1.88;;;;;;;18.28;26.68;100341.28;5061560;28;20032;-90
2022/12/12 04:24:34;;;;;;;2.22;1.95;;;;;;;18.31;26.63;100356.19;5071519;28;20866;-90
2022/12/12 04:27:18;;;;;;;2.13;1.92;;;;;;;18.31;26.63;100345.38;5050681;28;20031;-89
2022/12/12 04:29:52;;;;;;;2.63;2.03;;;;;;;18.27;26.86;100338.81;5047310;28;20025;-89
2022/12/12 04:32:20;;;;;;;2.63;2.40;;;;;;;18.13;26.70;100322.84;5057394;28;20095;-89
2022/12/12 04:34:53;;;;;;;2.72;2.00;;;;;;;18.17;26.85;100337.53;5053809;28;20092;-90
2022/12/12 04:37:22;;;;;;;2.28;1.70;;;;;;;18.12;26.64;100317.66;5051239;28;20028;-89
2022/12/12 04:39:50;;;;;;;2.20;2.00;;;;;;;18.11;26.63;100314.16;5052635;28;20115;-89
2022/12/12 04:42:17;;;;;;;2.33;2.05;;;;;;;18.12;26.28;100321.19;5050122;28;20525;-89
2022/12/12 04:44:45;;;;;;;2.33;2.10;;;;;;;18.11;26.80;100324.13;5053231;28;20038;-89
2022/12/12 04:47:11;;;;;;;3.65;1.88;;;;;;;18.19;26.49;100321.88;5052787;28;20484;-89
2022/12/12 04:49:37;;;;;;;3.03;2.30;;;;;;;18.22;26.65;100330.59;5042569;28;20039;-89
2022/12/12 04:52:05;;;;;;;2.28;2.08;;;;;;;18.25;26.72;100330.09;5056439;28;20444;-89
2022/12/12 04:54:56;;;;;;;2.50;2.15;;;;;;;18.16;26.66;100314.25;5059534;28;20224;-89
2022/12/12 04:57:34;;;;;;;3.58;2.20;;;;;;;18.20;26.63;100301.88;5036737;28;20040;-89
2022/12/12 04:59:59;;;;;;;2.80;2.30;;;;;;;18.21;26.60;100297.28;5032996;28;20147;-89
2022/12/12 05:02:56;;;;;;;2.67;2.17;;;;;;;18.14;26.31;100302.88;5049135;28;20123;-89
2022/12/12 05:05:22;;;;;;;2.47;1.90;;;;;;;18.17;26.54;100294.25;5070060;28;20559;-89
2022/12/12 05:08:10;;;;;;;2.83;1.90;;;;;;;18.21;26.53;100300.00;5071543;28;20040;-89
2022/12/12 05:10:41;;;;;;;2.13;1.92;;;;;;;18.20;26.69;100296.47;5070966;28;20023;-89
2022/12/12 05:13:17;;;;;;;2.70;2.30;;;;;;;18.14;26.46;100292.03;5053727;28;20319;-89
2022/12/12 05:15:47;;;;;;;2.22;1.90;;;;;;;18.17;26.45;100296.94;5035922;28;20037;-89
2022/12/12 05:18:12;;;;;;;2.25;1.90;;;;;;;18.07;26.58;100295.94;5056356;28;20024;-89
2022/12/12 05:20:38;;;;;;;2.72;1.98;;;;;;;18.11;26.51;100299.78;5060452;28;20035;-89
2022/12/12 05:23:04;;;;;;;2.78;2.00;;;;;;;18.17;26.28;100296.94;5025930;28;20892;-89
2022/12/12 05:25:29;;;;;;;2.60;1.98;;;;;;;18.17;26.60;100296.13;5060585;28;20099;-89
2022/12/12 05:27:55;;;;;;;2.00;1.65;;;;;;;18.07;26.49;100294.03;5029818;28;20365;-89
2022/12/12 05:30:23;;;;;;;1.85;1.65;;;;;;;18.11;26.29;100288.97;5054756;28;20030;-89
2022/12/12 05:32:49;;;;;;;1.83;1.60;;;;;;;18.13;26.48;100284.16;5032957;28;20678;-89
2022/12/12 05:35:18;;;;;;;2.13;1.77;;;;;;;18.09;26.53;100273.00;5047361;28;20437;-89
2022/12/12 05:37:43;;;;;;;3.45;1.77;;;;;;;18.16;26.55;100313.41;5031952;28;20037;-89
2022/12/12 05:40:10;;;;;;;2.50;1.80;;;;;;;18.08;26.59;100282.19;5031121;28;20078;-89
2022/12/12 05:42:36;;;;;;;2.20;2.00;;;;;;;18.10;26.47;100285.47;5054496;28;20028;-89
2022/12/12 05:45:02;;;;;;;2.10;1.80;;;;;;;18.05;26.86;100285.34;5028661;28;20387;-89
2022/12/12 05:47:27;;;;;;;2.58;1.92;;;;;;;18.12;26.67;100277.91;5038162;28;20305;-89
2022/12/12 05:49:53;;;;;;;2.00;1.75;;;;;;;18.11;26.61;100268.19;5060082;28;20028;-89
2022/12/12 05:52:19;;;;;;;2.28;1.88;;;;;;;18.16;26.59;100273.69;5034625;28;20036;-89
2022/12/12 05:54:50;;;;;;;2.17;1.80;;;;;;;18.14;26.59;100274.97;5056856;28;20484;-89
2022/12/12 05:57:17;;;;;;;2.45;1.92;;;;;;;18.09;26.57;100251.38;5050553;28;20031;-90
2022/12/12 05:59:44;;;;;;;1.83;1.70;;;;;;;18.06;26.35;100243.75;5054835;28;20035;-89
2022/12/12 06:02:10;;;;;;;2.00;1.70;;;;;;;18.12;26.75;100245.47;5074288;28;20024;-89
2022/12/12 06:04:35;;;;;;;2.42;1.83;;;;;;;18.01;26.57;100227.41;5036501;28;20032;-89
2022/12/12 06:07:03;;;;;;;2.22;2.03;;;;;;;18.11;26.68;100251.97;5035125;28;20027;-90
2022/12/12 06:09:29;;;;;;;2.13;1.83;;;;;;;18.06;26.29;100246.44;5053846;28;20039;-89
2022/12/12 06:11:54;;;;;;;2.30;1.90;;;;;;;18.09;26.42;100245.13;5056804;28;20227;-89
2022/12/12 06:14:22;;;;;;;2.55;1.70;;;;;;;18.09;26.58;100248.69;5038739;28;20287;-89
2022/12/12 06:16:48;;;;;;;2.00;1.80;;;;;;;18.05;26.64;100246.69;5048002;28;20021;-90
2022/12/12 06:19:13;;;;;;;2.55;1.80;;;;;;;18.04;26.45;100253.97;5039648;28;20108;-90
2022/12/12 06:21:39;;;;;;;2.38;1.75;;;;;;;17.97;26.47;100259.53;5035006;28;20666;-90
2022/12/12 06:24:05;;;;;;;2.00;1.60;;;;;;;18.11;26.51;100264.63;5064586;28;20175;-90
2022/12/12 06:26:31;;;;;;;1.70;1.45;;;;;;;18.06;26.67;100238.34;5060818;28;20028;-89
2022/12/12 06:28:57;;;;;;;1.85;1.70;;;;;;;18.02;26.42;100239.84;5027290;28;20111;-89
2022/12/12 06:31:23;;;;;;;1.88;1.65;;;;;;;18.04;26.56;100226.09;5062231;28;20462;-89
2022/12/12 06:33:48;;;;;;;1.63;1.50;;;;;;;18.06;26.29;100235.63;5058912;28;20016;-89
2022/12/12 06:36:22;;;;;;;2.55;1.83;;;;;;;18.01;26.00;100222.00;5047892;28;20111;-89
2022/12/12 06:38:48;;;;;;;2.30;1.75;;;;;;;18.06;26.21;100219.41;5053005;28;20119;-89
2022/12/12 06:41:14;;;;;;;3.58;1.45;;;;;;;18.01;26.30;100222.00;5042175;28;20032;-90
2022/12/12 06:43:43;;;;;;;1.90;1.70;;;;;;;18.00;26.32;100196.84;5039447;28;20036;-89
2022/12/12 06:46:18;;;;;;;2.05;1.70;;;;;;;17.97;26.27;100188.38;5035987;28;20115;-89
2022/12/12 06:48:47;;;;;;;1.98;1.70;;;;;;;17.95;26.18;100166.19;5058806;28;20726;-90
2022/12/12 06:51:14;;;;;;;3.72;1.83;;;;;;;18.01;26.18;100184.16;5044944;28;20035;-89
2022/12/12 06:53:43;;;;;;;1.90;1.65;;;;;;;17.99;26.17;100180.88;5060550;28;20122;-89
2022/12/12 06:56:11;;;;;;;2.17;1.73;;;;;;;18.00;26.01;100179.78;5058202;28;20054;-89
2022/12/12 06:58:36;;;;;;;1.90;1.60;;;;;;;17.99;26.07;100175.47;5034250;28;20093;-89
2022/12/12 07:01:03;;;;;;;1.65;1.30;;;;;;;17.94;26.24;100168.06;5054126;28;20113;-89
2022/12/12 07:03:31;;;;;;;2.03;1.70;;;;;;;17.92;26.17;100174.78;5035726;28;20061;-89
2022/12/12 07:05:56;;;;;;;1.45;1.35;;;;;;;17.95;25.97;100166.19;5053725;28;20467;-90
2022/12/12 07:08:22;;;;;;;1.75;1.45;;;;;;;17.93;26.06;100154.78;5052030;28;20184;-89
2022/12/12 07:10:48;;;;;;;2.05;1.60;;;;;;;17.89;26.17;100165.28;5077785;28;20135;-88
2022/12/12 07:13:13;;;;;;;2.13;1.73;;;;;;;17.92;25.89;100153.13;5054543;28;20036;-89
2022/12/12 07:15:59;;;;;;;2.22;1.50;;;;;;;17.88;26.17;100141.19;5037000;28;20042;-89
2022/12/12 07:18:25;;;;;;;1.60;1.40;;;;;;;17.84;25.98;100133.53;5053499;28;20384;-89
2022/12/12 07:20:50;;;;;;;1.52;1.30;;;;;;;17.85;26.16;100131.66;5062914;28;20032;-90
2022/12/12 07:23:18;;;;;;;1.40;1.30;;;;;;;17.86;26.11;100127.91;5040835;28;20068;-89
2022/12/12 07:25:44;;;;;;;1.88;1.50;;;;;;;17.92;25.76;100129.66;5061600;28;20052;-90
2022/12/12 07:28:10;;;;;;;2.28;1.60;;;;;;;17.84;26.05;100128.09;5061972;28;20571;-89
2022/12/12 07:30:46;;;;;;;1.70;1.58;;;;;;;17.77;25.81;100103.13;5057535;28;20024;-89
2022/12/12 07:33:13;;;;;;;1.42;1.33;;;;;;;17.84;25.78;100138.94;5054556;28;20512;-89
2022/12/12 07:35:39;;;;;;;1.42;1.33;;;;;;;17.80;26.02;100131.56;5042746;28;21041;-89
2022/12/12 07:38:06;;;;;;;1.73;1.48;;;;;;;17.79;25.85;100128.00;5040270;28;20392;-89
2022/12/12 07:40:34;;;;;;;1.92;1.63;;;;;;;17.75;25.53;100126.88;5052109;28;20202;-90
2022/12/12 07:43:00;;;;;;;2.10;1.40;;;;;;;17.81;25.86;100134.00;5051783;28;20021;-89
2022/12/12 07:45:26;;;;;;;1.58;1.15;;;;;;;17.79;25.69;100130.72;5036145;28;20055;-89
2022/12/12 07:47:52;;;;;;;4.03;1.45;;;;;;;17.83;25.68;100126.50;5036908;28;20336;-89
2022/12/12 07:50:17;;;;;;;1.48;1.25;;;;;;;17.78;25.74;100131.81;5054790;28;20032;-89
2022/12/12 07:52:46;;;;;;;2.13;1.63;;;;;;;17.77;25.61;100118.53;5052086;28;20508;-89
2022/12/12 07:55:14;;;;;;;1.60;1.48;;;;;;;17.80;25.60;100140.47;5038745;28;20047;-90
2022/12/12 07:57:40;;;;;;;1.48;1.35;;;;;;;17.78;25.78;100121.00;5025937;28;20032;-89
2022/12/12 08:00:06;;;;;;;1.42;1.30;;;;;;;17.80;25.69;100126.97;5030037;28;20020;-89
2022/12/12 08:02:32;;;;;;;1.58;1.30;;;;;;;17.76;25.86;100114.97;5041959;28;20032;-89
2022/12/12 08:04:58;;;;;;;1.73;1.52;;;;;;;17.82;25.81;100132.94;5026392;28;20036;-90
2022/12/12 08:07:26;;;;;;;1.80;1.40;;;;;;;17.75;25.84;100121.47;5024951;28;20091;-89
2022/12/12 08:09:51;;;;;;;2.00;1.48;;;;;;;17.68;25.82;100098.34;5032650;28;20120;-89
2022/12/12 08:12:17;;;;;;;1.55;1.45;;;;;;;17.74;25.69;100110.88;5036277;28;20560;-89
2022/12/12 08:14:47;;;;;;;1.45;1.35;;;;;;;17.73;25.86;100101.13;5033790;28;20039;-89
2022/12/12 08:17:12;;;;;;;2.15;1.40;;;;;;;17.66;25.79;100079.69;5035373;28;20025;-89
2022/12/12 08:19:38;;;;;;;2.00;1.60;;;;;;;17.70;25.78;100069.22;5049236;28;20515;-89
2022/12/12 08:22:04;;;;;;;1.30;1.20;;;;;;;17.73;25.62;100080.34;5030076;28;20272;-89
2022/12/12 08:24:29;;;;;;;2.40;1.65;;;;;;;17.74;25.79;100081.16;5015620;28;20132;-89
2022/12/12 08:26:55;;;;;;;2.05;1.30;;;;;;;17.68;25.71;100066.75;5023297;28;20473;-89
2022/12/12 08:29:21;;;;;;;1.80;1.25;;;;;;;17.67;25.50;100065.09;5017712;28;20024;-89
2022/12/12 08:31:46;;;;;;;1.40;1.20;;;;;;;17.79;25.64;100078.56;5018448;28;20060;-89
2022/12/12 08:34:14;;;;;;;1.60;1.30;;;;;;;17.69;25.63;100079.19;5014785;28;20047;-89
2022/12/12 08:36:40;;;;;;;1.70;1.48;;;;;;;17.79;25.71;100079.38;5021632;28;20043;-89
2022/12/12 08:39:08;;;;;;;1.40;1.30;;;;;;;17.73;25.65;100058.72;5033819;28;21076;-89
2022/12/12 08:41:35;;;;;;;2.35;1.67;;;;;;;17.75;25.65;100072.81;5031595;28;20511;-90
2022/12/12 08:44:01;;;;;;;1.83;1.55;;;;;;;17.74;25.67;100059.53;5017442;28;20024;-89
2022/12/12 08:46:26;;;;;;;1.58;1.25;;;;;;;17.67;25.52;100062.38;5019810;28;20167;-89
2022/12/12 08:48:52;;;;;;;1.92;1.50;;;;;;;17.65;25.56;100051.81;5011151;28;20115;-88
2022/12/12 08:51:18;;;;;;;2.00;1.60;;;;;;;17.67;25.63;100043.47;5042241;28;20100;-89
2022/12/12 08:53:44;;;;;;;1.50;1.20;;;;;;;17.67;25.49;100048.06;5033208;28;20051;-89
2022/12/12 08:56:13;;;;;;;1.83;1.50;;;;;;;17.65;25.36;100029.38;5015436;28;20038;-89
2022/12/12 08:58:38;;;;;;;1.60;1.50;;;;;;;17.65;25.13;100061.81;5020741;28;20404;-89
2022/12/12 09:01:17;;;;;;;1.33;1.10;;;;;;;17.65;25.39;100043.72;5032733;28;20033;-89
2022/12/12 09:03:43;;;;;;;1.95;1.40;;;;;;;17.57;25.30;100032.47;5013735;28;20367;-89
2022/12/12 09:06:09;;;;;;;1.40;1.30;;;;;;;17.67;25.27;100038.06;5021260;28;20119;-89
2022/12/12 09:08:35;;;;;;;1.70;1.33;;;;;;;17.62;25.35;100037.97;5014398;28;20482;-89
2022/12/12 09:11:03;;;;;;;1.42;1.20;;;;;;;17.61;25.29;100033.66;5035461;28;20025;-89
2022/12/12 09:13:29;;;;;;;1.50;1.30;;;;;;;17.65;25.19;100051.00;5036720;28;20067;-89
2022/12/12 09:15:55;;;;;;;1.85;1.35;;;;;;;17.63;25.12;100034.22;5029933;28;20025;-89
2022/12/12 09:18:20;;;;;;;1.83;1.50;;;;;;;17.60;25.36;100030.09;5023174;28;20488;-89
2022/12/12 09:20:50;;;;;;;2.22;1.50;;;;;;;17.60;25.42;100032.81;5034283;28;20427;-89
2022/12/12 09:23:16;;;;;;;1.50;1.30;;;;;;;17.58;25.36;100026.03;5027845;28;20036;-89
2022/12/12 09:25:42;;;;;;;1.67;1.55;;;;;;;17.55;25.17;100007.59;5028020;28;20039;-89
2022/12/12 09:28:10;;;;;;;1.30;1.20;;;;;;;17.64;25.19;100016.94;5018184;28;20415;-89
2022/12/12 09:30:35;;;;;;;1.77;1.30;;;;;;;17.56;25.21;99990.34;5020969;28;20093;-89
2022/12/12 09:33:01;;;;;;;1.50;1.20;;;;;;;17.58;25.41;100001.72;5022228;28;20131;-89
2022/12/12 09:35:32;;;;;;;1.58;1.42;;;;;;;17.60;25.25;99994.19;5016239;28;20541;-89
2022/12/12 09:37:58;;;;;;;1.30;1.20;;;;;;;17.56;25.14;99983.03;5035726;28;20025;-89
2022/12/12 09:40:35;;;;;;;2.50;1.40;;;;;;;17.62;25.27;99986.63;5034011;28;20032;-89
2022/12/12 09:43:01;;;;;;;2.10;1.40;;;;;;;17.53;25.14;99966.50;5045464;28;20334;-88
2022/12/12 09:45:34;;;;;;;1.60;1.33;;;;;;;17.62;25.03;99982.03;5016067;28;20107;-89
2022/12/12 09:48:01;;;;;;;1.58;1.20;;;;;;;17.56;25.12;99972.22;5014280;28;21020;-88
2022/12/12 09:50:35;;;;;;;1.67;1.52;;;;;;;17.55;25.23;99975.16;5038585;28;20114;-89
2022/12/12 09:53:03;;;;;;;1.50;1.30;;;;;;;17.48;25.39;99958.31;5010966;28;20554;-88
2022/12/12 09:55:59;;;;;;;1.48;1.20;;;;;;;17.53;25.20;99963.78;5041121;28;20029;-87
2022/12/12 09:58:42;;;;;;;1.70;1.02;;;;;;;17.56;24.99;99976.81;5030492;28;20077;-89
2022/12/12 10:01:27;;;;;;;1.98;1.48;;;;;;;17.49;24.94;99960.75;5023099;28;20493;-89
2022/12/12 10:04:12;;;;;;;1.50;1.33;;;;;;;17.39;24.91;99950.59;5038375;28;20037;-89
2022/12/12 10:06:52;;;;;;;1.77;1.33;;;;;;;17.41;24.99;99953.84;5051105;28;20115;-88
2022/12/12 10:09:33;;;;;;;1.40;1.25;;;;;;;17.45;24.91;99954.19;5021468;28;20374;-88
2022/12/12 10:11:59;;;;;;;2.15;1.40;;;;;;;17.38;24.91;99943.53;5042774;28;20481;-88
2022/12/12 10:14:38;;;;;;;2.03;1.60;;;;;;;17.43;24.88;99946.31;5028302;28;20056;-89
2022/12/12 10:17:07;;;;;;;1.55;1.27;;;;;;;17.39;24.55;99947.06;5047748;28;20352;-89
2022/12/12 10:19:34;;;;;;;2.10;1.23;;;;;;;17.35;24.86;99938.66;5032352;28;20043;-89
2022/12/12 10:22:03;;;;;;;1.40;1.30;;;;;;;17.37;24.61;99935.69;5034299;28;20028;-89
2022/12/12 10:24:34;;;;;;;1.33;1.23;;;;;;;17.40;24.72;99919.81;5026157;28;20123;-89
2022/12/12 10:27:00;;;;;;;1.95;1.50;;;;;;;17.38;24.56;99919.22;5034902;28;20173;-89
2022/12/12 10:29:42;;;;;;;2.40;1.58;;;;;;;17.24;24.82;99889.00;5022957;28;20131;-89
2022/12/12 10:32:49;;;;;;;1.90;1.35;;;;;;;17.33;24.49;99894.81;5038406;28;20126;-88
2022/12/12 10:35:17;;;;;;;1.60;1.20;;;;;;;17.38;24.52;99894.91;5033578;28;20116;-89
2022/12/12 10:37:52;;;;;;;1.65;1.30;;;;;;;17.42;24.45;99889.88;5048984;28;20425;-88
2022/12/12 10:40:38;;;;;;;2.30;1.80;;;;;;;17.35;24.48;99868.41;5051919;28;20115;-88
2022/12/12 10:43:10;;;;;;;2.90;2.10;;;;;;;17.32;24.77;99854.59;5047985;28;20336;-89
2022/12/12 10:46:21;;;;;;;2.88;2.10;;;;;;;17.27;24.55;99831.00;5055224;28;20412;-89
2022/12/12 10:48:47;;;;;;;4.43;2.70;;;;;;;17.21;24.46;99818.47;5031401;28;20123;-89
2022/12/12 10:51:13;;;;;;;5.28;2.97;;;;;;;17.29;24.42;99830.75;5021210;28;20119;-88
2022/12/12 10:53:42;;;;;;;5.25;3.30;;;;;;;17.18;24.47;99806.31;5010847;28;20031;-89
2022/12/12 10:56:10;;;;;;;4.47;2.90;;;;;;;17.30;24.65;99811.63;5038125;28;20033;-88
2022/12/12 10:58:40;;;;;;;4.60;3.13;;;;;;;17.32;24.52;99804.09;5018542;28;20025;-88
2022/12/12 11:01:20;;;;;;;5.18;3.20;;;;;;;17.25;24.36;99785.34;5039471;28;20024;-88
2022/12/12 11:03:47;;;;;;;5.30;3.13;;;;;;;17.31;24.44;99798.94;5018556;28;20374;-87
2022/12/12 11:06:17;;;;;;;4.18;2.72;;;;;;;17.16;24.25;99786.00;5039208;28;20020;-89
2022/12/12 11:09:26;;;;;;;4.82;2.75;;;;;;;17.22;24.38;99788.53;5031499;28;20025;-88
2022/12/12 11:12:12;;;;;;;4.22;2.60;;;;;;;17.24;24.37;99791.00;5024764;28;20443;-89
2022/12/12 11:14:49;;;;;;;3.45;2.50;;;;;;;17.20;24.46;99787.97;5036145;28;20025;-89
2022/12/12 11:17:27;;;;;;;3.42;2.55;;;;;;;17.22;24.25;99788.53;5027481;28;20492;-89
2022/12/12 11:19:55;;;;;;;4.10;2.58;;;;;;;17.22;24.19;99799.34;5048492;28;20040;-89
2022/12/12 11:22:24;;;;;;;4.78;2.70;;;;;;;17.14;24.36;99782.72;5018215;28;20031;-89
2022/12/12 11:24:49;;;;;;;3.03;2.30;;;;;;;17.13;24.25;99765.72;5033468;28;20056;-89
2022/12/12 11:27:20;;;;;;;4.63;2.65;;;;;;;17.14;24.14;99764.63;5018790;28;20607;-88
2022/12/12 11:29:47;;;;;;;4.43;2.58;;;;;;;17.17;24.16;99764.16;5034828;28;20398;-88
2022/12/12 11:32:31;;;;;;;5.63;2.30;;;;;;;17.15;24.18;99760.88;5029911;28;20078;-88
2022/12/12 11:34:58;;;;;;;3.88;2.60;;;;;;;17.15;24.03;99755.47;5023597;28;20021;-89
2022/12/12 11:37:34;;;;;;;3.78;2.20;;;;;;;17.16;24.22;99729.28;5033603;28;20021;-88
2022/12/12 11:40:00;;;;;;;2.88;2.10;;;;;;;17.13;24.04;99736.00;5024697;28;20056;-89
2022/12/12 11:42:30;;;;;;;3.22;2.30;;;;;;;17.11;24.06;99743.56;5029060;28;20489;-89
2022/12/12 11:45:01;;;;;;;4.18;2.47;;;;;;;17.00;24.31;99726.34;5022425;28;20021;-89
2022/12/12 11:47:40;;;;;;;2.83;2.00;;;;;;;17.06;24.17;99722.69;5031364;28;20029;-89
2022/12/12 11:50:24;;;;;;;3.15;2.13;;;;;;;17.12;24.10;99728.97;5012809;28;20941;-89
2022/12/12 11:52:51;;;;;;;3.95;2.45;;;;;;;17.08;23.98;99725.94;5017956;28;20028;-88
2022/12/12 11:55:21;;;;;;;2.85;1.80;;;;;;;17.10;23.65;99708.69;5027632;28;20032;-88